Time;durP1;ratioP1;P1;durP2;ratioP2;P2;SDS_P1;SDS_P2;PMS_P1;PMS_P2;Temp;Humidity;BMP_temperature;BMP_pressure;BME280_temperature;BME280_humidity;BME280_pressure;Samples;Min_cycle;Max_cycle;Signal;HPM_P1;HPM_P2
2022/11/09 00:01:30;;;;;;;3.60;2.03;;;;;;;12.83;100.00;100407.59;7390378;19;20500;-59
2022/11/09 00:04:00;;;;;;;6.20;1.93;;;;;;;12.83;100.00;100398.09;7392693;19;20420;-56
2022/11/09 00:06:30;;;;;;;12.43;3.07;;;;;;;12.82;100.00;100395.50;7387961;19;20434;-59
2022/11/09 00:09:00;;;;;;;6.10;2.30;;;;;;;12.79;100.00;100405.75;7391914;19;20391;-57
2022/11/09 00:11:36;;;;;;;9.90;2.60;;;;;;;12.75;100.00;100397.03;7388751;19;20449;-60
2022/11/09 00:14:08;;;;;;;4.53;2.00;;;;;;;12.72;100.00;100403.84;7396572;19;20384;-58
2022/11/09 00:16:37;;;;;;;6.73;2.83;;;;;;;12.70;100.00;100403.78;7388815;19;20435;-59
2022/11/09 00:19:07;;;;;;;6.80;2.53;;;;;;;12.70;100.00;100393.44;7391961;19;20423;-60
2022/11/09 00:21:37;;;;;;;4.27;1.83;;;;;;;12.67;100.00;100404.56;7387589;19;20435;-56
2022/11/09 00:24:07;;;;;;;5.27;1.97;;;;;;;12.65;100.00;100400.19;7392503;19;20380;-59
2022/11/09 00:26:37;;;;;;;5.17;1.97;;;;;;;12.64;100.00;100395.84;7388592;19;20440;-59
2022/11/09 00:29:09;;;;;;;3.40;1.53;;;;;;;12.63;100.00;100396.69;7390989;19;20406;-59
2022/11/09 00:31:39;;;;;;;4.00;1.97;;;;;;;12.61;100.00;100393.19;7388695;19;20425;-59
2022/11/09 00:34:08;;;;;;;4.07;1.73;;;;;;;12.61;100.00;100388.03;7396071;19;20398;-59
2022/11/09 00:36:38;;;;;;;4.87;1.57;;;;;;;12.56;100.00;100386.16;7387925;19;20521;-58
2022/11/09 00:39:07;;;;;;;8.00;2.60;;;;;;;12.56;100.00;100381.00;7393652;19;20398;-59
2022/11/09 00:41:37;;;;;;;3.47;1.90;;;;;;;12.52;100.00;100381.72;7385250;19;20435;-59
2022/11/09 00:44:09;;;;;;;7.77;2.23;;;;;;;12.50;100.00;100374.75;7391668;19;20454;-58
2022/11/09 00:46:39;;;;;;;8.10;2.00;;;;;;;12.45;100.00;100371.19;7387984;19;20402;-60
2022/11/09 00:49:08;;;;;;;4.53;1.77;;;;;;;12.43;100.00;100386.66;7391134;19;20396;-59
2022/11/09 00:51:38;;;;;;;6.80;1.90;;;;;;;12.41;100.00;100388.34;7388747;19;20456;-58
2022/11/09 00:54:08;;;;;;;4.43;2.20;;;;;;;12.40;100.00;100387.44;7390319;19;20408;-60
2022/11/09 00:56:38;;;;;;;4.20;1.80;;;;;;;12.33;100.00;100382.06;7387663;19;20422;-57
2022/11/09 00:59:11;;;;;;;5.00;1.87;;;;;;;12.33;100.00;100382.06;7389910;19;20395;-59
2022/11/09 01:01:41;;;;;;;4.53;1.83;;;;;;;12.29;100.00;100376.81;7387443;19;20469;-59
2022/11/09 01:04:10;;;;;;;7.63;1.90;;;;;;;12.28;100.00;100380.22;7390099;19;20412;-58
2022/11/09 01:06:40;;;;;;;5.80;1.93;;;;;;;12.25;100.00;100369.78;7388539;19;20399;-56
2022/11/09 01:09:11;;;;;;;4.37;1.83;;;;;;;12.26;100.00;100368.94;7390482;19;20415;-59
2022/11/09 01:11:41;;;;;;;4.57;2.53;;;;;;;12.26;100.00;100368.94;7387454;19;20541;-59
2022/11/09 01:14:14;;;;;;;9.20;2.03;;;;;;;12.23;100.00;100368.88;7391020;19;20388;-58
2022/11/09 01:16:43;;;;;;;4.20;1.87;;;;;;;12.22;100.00;100379.16;7388536;19;20431;-58
2022/11/09 01:19:13;;;;;;;8.33;2.43;;;;;;;12.22;100.00;100372.28;7389595;19;20751;-60
2022/11/09 01:21:43;;;;;;;7.20;2.60;;;;;;;12.24;100.00;100361.97;7386729;19;20484;-58
2022/11/09 01:24:12;;;;;;;8.07;2.40;;;;;;;12.19;100.00;100363.56;7389852;19;20399;-57
2022/11/09 01:26:42;;;;;;;5.50;2.03;;;;;;;12.15;100.00;100367.75;7387478;19;20426;-59
2022/11/09 01:29:14;;;;;;;10.90;2.13;;;;;;;12.15;100.00;100367.75;7387369;19;20399;-60
2022/11/09 01:31:44;;;;;;;6.80;2.20;;;;;;;12.14;100.00;100361.72;7385228;19;20429;-59
2022/11/09 01:34:16;;;;;;;5.53;1.90;;;;;;;12.13;100.00;100364.25;7388038;19;20403;-59
2022/11/09 01:36:45;;;;;;;6.20;1.93;;;;;;;12.05;100.00;100360.56;7384593;19;20900;-59
2022/11/09 01:39:15;;;;;;;4.73;2.10;;;;;;;12.05;100.00;100351.09;7386855;19;20391;-57
2022/11/09 01:41:44;;;;;;;6.47;2.47;;;;;;;12.04;100.00;100351.06;7383162;19;20438;-59
2022/11/09 01:44:18;;;;;;;4.20;1.90;;;;;;;12.09;100.00;100352.06;7388104;19;20427;-60
2022/11/09 01:46:51;;;;;;;3.27;1.83;;;;;;;12.06;100.00;100358.03;7384892;19;20419;-60
2022/11/09 01:49:30;;;;;;;7.87;2.30;;;;;;;12.08;100.00;100356.38;7387402;19;20412;-59
2022/11/09 01:52:03;;;;;;;4.77;2.03;;;;;;;12.05;100.00;100358.84;7385057;19;20430;-59
2022/11/09 01:54:36;;;;;;;4.50;2.03;;;;;;;11.98;100.00;100356.88;7387615;19;20390;-60
2022/11/09 01:57:10;;;;;;;4.33;2.00;;;;;;;11.98;100.00;100357.78;7384986;19;20956;-59
2022/11/09 01:59:45;;;;;;;6.23;2.10;;;;;;;11.92;100.00;100357.59;7385600;19;20765;-60
2022/11/09 02:02:14;;;;;;;4.33;2.20;;;;;;;11.87;100.00;100352.28;7385370;19;20455;-60
2022/11/09 02:04:47;;;;;;;3.30;1.60;;;;;;;11.85;100.00;100355.66;7386815;19;20386;-59
2022/11/09 02:07:17;;;;;;;6.23;1.97;;;;;;;11.82;100.00;100358.13;7391760;19;20411;-58
2022/11/09 02:09:49;;;;;;;4.80;2.00;;;;;;;11.79;100.00;100358.06;7397032;19;20421;-59
2022/11/09 02:12:19;;;;;;;4.40;1.73;;;;;;;11.75;100.00;100362.25;7394109;19;20957;-59
2022/11/09 02:14:53;;;;;;;9.77;4.83;;;;;;;11.84;100.00;100356.50;7391420;19;20407;-59
2022/11/09 02:17:23;;;;;;;4.67;2.30;;;;;;;11.77;100.00;100355.41;7394251;19;20391;-59
2022/11/09 02:19:53;;;;;;;4.50;2.30;;;;;;;11.71;100.00;100345.78;7390010;19;20414;-59
2022/11/09 02:22:25;;;;;;;4.90;2.13;;;;;;;11.72;100.00;100352.69;7392351;19;20382;-58
2022/11/09 02:24:54;;;;;;;5.93;2.30;;;;;;;11.70;100.00;100344.00;7394301;19;20426;-59
2022/11/09 02:27:25;;;;;;;4.30;2.20;;;;;;;11.77;100.00;100342.50;7394073;19;20464;-56
2022/11/09 02:29:54;;;;;;;4.27;1.93;;;;;;;11.69;100.00;100342.25;7392046;19;20752;-57
2022/11/09 02:32:26;;;;;;;4.57;2.40;;;;;;;11.73;100.00;100344.13;7392970;19;20849;-59
2022/11/09 02:34:56;;;;;;;3.93;1.97;;;;;;;11.68;100.00;100330.16;7387193;19;20752;-59
2022/11/09 02:37:34;;;;;;;3.77;2.17;;;;;;;11.73;100.00;100323.44;7398393;19;20419;-58
2022/11/09 02:40:08;;;;;;;6.47;1.90;;;;;;;11.66;100.00;100325.78;7391872;19;20381;-58
2022/11/09 02:42:38;;;;;;;5.60;2.20;;;;;;;11.68;100.00;100327.59;7393757;19;20779;-57
2022/11/09 02:45:08;;;;;;;10.63;2.47;;;;;;;11.68;100.00;100332.75;7395721;19;20433;-59
2022/11/09 02:47:38;;;;;;;4.80;1.90;;;;;;;11.68;100.00;100330.16;7399756;19;20752;-60
2022/11/09 02:50:08;;;;;;;3.73;2.17;;;;;;;11.64;100.00;100333.47;7390315;19;20395;-58
2022/11/09 02:52:40;;;;;;;4.80;1.80;;;;;;;11.66;100.00;100334.44;7395088;19;20406;-59
2022/11/09 02:55:10;;;;;;;7.30;2.10;;;;;;;11.63;100.00;100336.91;7392498;19;20422;-59
2022/11/09 02:57:40;;;;;;;5.00;2.10;;;;;;;11.64;100.00;100333.47;7394662;19;20408;-59
2022/11/09 03:00:11;;;;;;;5.30;2.30;;;;;;;11.68;100.00;100334.44;7391824;19;20446;-59
2022/11/09 03:02:40;;;;;;;4.23;1.73;;;;;;;11.67;100.00;100328.41;7394729;19;20414;-61
2022/11/09 03:05:10;;;;;;;4.17;1.97;;;;;;;11.67;100.00;100333.59;7395048;19;20432;-58
2022/11/09 03:07:42;;;;;;;8.00;3.20;;;;;;;11.65;100.00;100332.69;7394478;19;20403;-58
2022/11/09 03:10:11;;;;;;;4.00;2.60;;;;;;;11.64;100.00;100333.47;7391204;19;20494;-57
2022/11/09 03:12:41;;;;;;;3.97;1.83;;;;;;;11.64;100.00;100333.47;7394437;19;20418;-59
2022/11/09 03:15:11;;;;;;;4.97;2.17;;;;;;;11.60;100.00;100334.25;7391570;19;20441;-60
2022/11/09 03:17:41;;;;;;;4.80;2.27;;;;;;;11.60;100.00;100334.25;7393774;19;20436;-59
2022/11/09 03:20:12;;;;;;;9.47;2.33;;;;;;;11.56;100.00;100334.97;7391822;19;20409;-60
2022/11/09 03:22:44;;;;;;;4.67;2.50;;;;;;;11.58;100.00;100328.13;7393397;19;20422;-59
2022/11/09 03:25:13;;;;;;;8.40;2.47;;;;;;;11.56;100.00;100324.63;7391662;19;20527;-60
2022/11/09 03:27:42;;;;;;;4.77;2.30;;;;;;;11.59;100.00;100323.00;7393494;19;20414;-59
2022/11/09 03:30:12;;;;;;;3.87;2.13;;;;;;;11.57;100.00;100318.63;7379058;19;20418;-52
2022/11/09 03:32:42;;;;;;;6.03;2.20;;;;;;;11.56;100.00;100309.13;7392746;19;20398;-52
2022/11/09 03:35:18;;;;;;;5.20;2.30;;;;;;;11.59;100.00;100310.09;7394700;19;20934;-49
2022/11/09 03:37:50;;;;;;;5.87;2.10;;;;;;;11.57;100.00;100306.59;7393341;19;20429;-49
2022/11/09 03:40:20;;;;;;;4.20;2.00;;;;;;;11.60;100.00;100310.97;7388603;19;20404;-49
2022/11/09 03:42:50;;;;;;;4.00;2.10;;;;;;;11.63;100.00;100313.66;7391849;19;20385;-52
2022/11/09 03:45:19;;;;;;;4.17;2.10;;;;;;;11.63;100.00;100311.06;7390699;19;20414;-51
2022/11/09 03:47:49;;;;;;;5.60;1.97;;;;;;;11.65;100.00;100309.41;7393096;19;20383;-49
2022/11/09 03:50:19;;;;;;;5.00;2.20;;;;;;;11.65;100.00;100314.59;7388236;19;20404;-50
2022/11/09 03:52:51;;;;;;;7.73;2.70;;;;;;;11.70;100.00;100307.81;7392661;19;20427;-50
2022/11/09 03:55:21;;;;;;;8.77;2.43;;;;;;;11.77;100.00;100311.47;7389987;19;20943;-52
2022/11/09 03:57:51;;;;;;;4.00;2.30;;;;;;;11.80;100.00;100300.38;7392872;19;20391;-49
2022/11/09 04:00:22;;;;;;;5.00;2.07;;;;;;;11.81;100.00;100310.75;7387849;19;20402;-53
2022/11/09 04:02:51;;;;;;;7.90;2.17;;;;;;;11.80;100.00;100308.13;7391647;19;20421;-48
2022/11/09 04:05:21;;;;;;;6.27;3.23;;;;;;;11.80;100.00;100296.06;7389959;19;20408;-49
2022/11/09 04:07:55;;;;;;;8.80;2.17;;;;;;;11.79;100.00;100296.03;7391917;19;20388;-52
2022/11/09 04:10:25;;;;;;;4.30;1.97;;;;;;;11.78;100.00;100296.88;7389169;19;20480;-51
2022/11/09 04:12:55;;;;;;;5.37;2.37;;;;;;;11.88;100.00;100297.16;7392325;19;20414;-52
2022/11/09 04:15:25;;;;;;;4.73;2.10;;;;;;;11.87;100.00;100294.53;7389430;19;20418;-53
2022/11/09 04:17:58;;;;;;;8.50;2.70;;;;;;;11.86;100.00;100288.47;7391774;19;20387;-51
2022/11/09 04:20:28;;;;;;;4.80;2.43;;;;;;;11.90;100.00;100276.53;7387514;19;20793;-50
2022/11/09 04:23:03;;;;;;;4.73;2.00;;;;;;;12.00;100.00;100275.09;7394479;19;20406;-51
2022/11/09 04:25:34;;;;;;;5.07;2.13;;;;;;;12.01;100.00;100275.13;7389121;19;20407;-52
2022/11/09 04:28:05;;;;;;;6.90;1.70;;;;;;;12.17;100.00;100280.75;7391627;19;20406;-52
2022/11/09 04:30:37;;;;;;;4.03;1.90;;;;;;;12.19;100.00;100276.50;7385251;19;20406;-54
2022/11/09 04:33:07;;;;;;;7.33;2.23;;;;;;;12.20;100.00;100283.41;7391651;19;21101;-51
2022/11/09 04:35:37;;;;;;;4.70;2.10;;;;;;;12.29;100.00;100272.44;7388622;19;20414;-52
2022/11/09 04:38:12;;;;;;;4.80;2.07;;;;;;;12.32;100.00;100271.66;7392720;19;20405;-51
2022/11/09 04:40:42;;;;;;;6.67;1.73;;;;;;;12.31;100.00;100275.94;7388336;19;20412;-53
2022/11/09 04:43:14;;;;;;;5.23;2.23;;;;;;;12.27;100.00;100272.41;7389801;19;20908;-54
2022/11/09 04:45:46;;;;;;;5.17;2.00;;;;;;;12.34;100.00;100270.88;7388806;19;20426;-52
2022/11/09 04:48:15;;;;;;;4.87;1.90;;;;;;;12.35;100.00;100269.19;7390600;19;20449;-57
2022/11/09 04:50:45;;;;;;;4.60;1.60;;;;;;;12.40;100.00;100280.50;7386225;19;20773;-52
2022/11/09 04:53:17;;;;;;;4.47;2.00;;;;;;;12.40;100.00;100280.50;7390979;19;20947;-52
2022/11/09 04:55:46;;;;;;;4.03;1.80;;;;;;;12.46;100.00;100278.06;7388501;19;20415;-54
2022/11/09 04:58:15;;;;;;;3.80;1.97;;;;;;;12.46;100.00;100265.13;7390251;19;20905;-52
2022/11/09 05:00:52;;;;;;;8.80;2.87;;;;;;;12.46;100.00;100272.03;7388239;19;20849;-54
2022/11/09 05:03:21;;;;;;;10.07;2.23;;;;;;;12.44;100.00;100272.00;7390031;19;20429;-55
2022/11/09 05:05:51;;;;;;;6.23;2.17;;;;;;;12.38;100.00;100271.81;7388665;19;20478;-57
2022/11/09 05:08:23;;;;;;;5.20;1.90;;;;;;;12.42;100.00;100268.50;7389324;19;20383;-53
2022/11/09 05:10:53;;;;;;;4.90;2.67;;;;;;;12.46;100.00;100274.63;7388019;19;20419;-52
2022/11/09 05:13:22;;;;;;;8.53;1.80;;;;;;;12.44;100.00;100274.56;7390264;19;20391;-54
2022/11/09 05:15:51;;;;;;;4.00;2.00;;;;;;;12.44;100.00;100279.75;7387600;19;20417;-53
2022/11/09 05:18:21;;;;;;;7.07;2.07;;;;;;;12.42;100.00;100287.47;7389655;19;20381;-55
2022/11/09 05:20:50;;;;;;;8.63;2.10;;;;;;;12.53;100.00;100282.59;7387805;19;21085;-53
2022/11/09 05:26:04;;;;;;;5.77;1.77;;;;;;;12.61;100.00;100284.50;7387444;19;20434;-55
2022/11/09 05:28:34;;;;;;;5.00;1.80;;;;;;;12.59;100.00;100280.97;7388121;19;20986;-56
2022/11/09 05:31:03;;;;;;;6.73;2.10;;;;;;;12.58;100.00;100272.34;7387552;19;20465;-51
2022/11/09 05:33:32;;;;;;;6.10;2.00;;;;;;;12.54;100.00;100275.69;7389373;19;20368;-57
2022/11/09 05:36:02;;;;;;;7.00;1.83;;;;;;;12.51;100.00;100268.72;7387054;19;20442;-52
2022/11/09 05:38:34;;;;;;;4.40;1.77;;;;;;;12.50;100.00;100281.59;7388514;19;20388;-53
2022/11/09 05:41:03;;;;;;;5.03;1.60;;;;;;;12.54;100.00;100279.16;7388234;19;20435;-52
2022/11/09 05:43:33;;;;;;;5.00;2.17;;;;;;;12.53;100.00;100272.25;7397840;19;20434;-55
2022/11/09 05:46:02;;;;;;;5.63;1.60;;;;;;;12.52;100.00;100272.19;7398181;19;20475;-53
2022/11/09 05:48:35;;;;;;;8.20;2.10;;;;;;;12.47;100.00;100271.19;7395641;19;20516;-53
2022/11/09 05:51:05;;;;;;;3.67;2.00;;;;;;;12.37;100.00;100260.59;7395917;19;20418;-55
2022/11/09 05:53:37;;;;;;;4.90;2.27;;;;;;;12.29;100.00;100257.81;7396606;19;20396;-54
2022/11/09 05:56:14;;;;;;;4.93;1.83;;;;;;;12.21;100.00;100264.47;7394195;19;20403;-51
2022/11/09 05:58:43;;;;;;;3.67;2.30;;;;;;;12.21;100.00;100259.31;7395044;19;20429;-56
2022/11/09 06:01:15;;;;;;;5.23;2.13;;;;;;;12.18;100.00;100263.53;7393988;19;20423;-51
2022/11/09 06:03:45;;;;;;;4.67;1.97;;;;;;;12.17;100.00;100265.25;7396128;19;20415;-55
2022/11/09 06:06:17;;;;;;;5.23;1.90;;;;;;;12.14;100.00;100265.16;7393797;19;20408;-53
2022/11/09 06:08:49;;;;;;;6.07;2.10;;;;;;;12.13;100.00;100263.41;7395900;19;20433;-53
2022/11/09 06:11:19;;;;;;;5.30;2.20;;;;;;;12.12;100.00;100265.13;7394348;19;20434;-52
2022/11/09 06:13:52;;;;;;;6.10;2.10;;;;;;;12.12;100.00;100259.06;7397031;19;20830;-53
2022/11/09 06:16:22;;;;;;;7.07;2.30;;;;;;;12.11;100.00;100272.84;7394606;19;20471;-52
2022/11/09 06:18:52;;;;;;;5.37;1.70;;;;;;;12.05;100.00;100272.66;7398456;19;20442;-55
2022/11/09 06:21:21;;;;;;;7.77;2.33;;;;;;;12.06;100.00;100269.25;7393212;19;20421;-51
2022/11/09 06:23:53;;;;;;;4.23;1.93;;;;;;;12.06;100.00;100280.47;7398086;19;20441;-53
2022/11/09 06:26:23;;;;;;;4.80;2.20;;;;;;;12.06;100.00;100284.75;7394726;19;20534;-51
2022/11/09 06:28:52;;;;;;;3.33;1.60;;;;;;;12.01;100.00;100293.22;7397240;19;20472;-56
2022/11/09 06:31:22;;;;;;;4.33;1.97;;;;;;;12.04;100.00;100291.59;7392927;19;20976;-55
2022/11/09 06:33:51;;;;;;;3.67;2.20;;;;;;;12.08;100.00;100285.66;7395499;19;20410;-55
2022/11/09 06:36:21;;;;;;;6.93;1.87;;;;;;;12.10;100.00;100277.13;7392530;19;20418;-55
2022/11/09 06:38:53;;;;;;;3.30;1.60;;;;;;;12.16;100.00;100289.38;7398395;19;20434;-51
2022/11/09 06:41:23;;;;;;;7.13;2.07;;;;;;;12.16;100.00;100289.38;7391528;19;20463;-48
2022/11/09 06:43:52;;;;;;;5.93;1.80;;;;;;;12.22;100.00;100286.94;7394686;19;20757;-53
2022/11/09 06:46:21;;;;;;;4.07;1.50;;;;;;;12.32;100.00;100288.06;7392198;19;20446;-57
2022/11/09 06:48:51;;;;;;;4.30;1.70;;;;;;;12.39;100.00;100283.91;7393471;19;20759;-54
2022/11/09 06:51:23;;;;;;;4.17;1.70;;;;;;;12.45;100.00;100299.59;7391884;19;20409;-52
2022/11/09 06:53:55;;;;;;;5.23;2.10;;;;;;;12.47;100.00;100305.72;7394301;19;20452;-55
2022/11/09 06:56:24;;;;;;;7.23;2.10;;;;;;;12.44;100.00;100303.03;7392586;19;20411;-51
2022/11/09 06:58:53;;;;;;;5.20;1.67;;;;;;;12.48;100.00;100309.16;7393425;19;20403;-54
2022/11/09 07:01:28;;;;;;;5.23;1.57;;;;;;;12.46;100.00;100306.53;7392037;19;20461;-52
2022/11/09 07:03:58;;;;;;;3.40;1.53;;;;;;;12.44;100.00;100315.97;7394475;19;20398;-51
2022/11/09 07:06:27;;;;;;;5.50;2.07;;;;;;;12.43;100.00;100306.47;7391606;19;20448;-58
2022/11/09 07:09:00;;;;;;;3.23;1.60;;;;;;;12.41;100.00;100308.16;7392838;19;20952;-51
2022/11/09 07:11:29;;;;;;;5.80;1.73;;;;;;;12.37;100.00;100307.16;7389206;19;20420;-52
2022/11/09 07:14:00;;;;;;;5.20;1.70;;;;;;;12.38;100.00;100306.34;7393890;19;20939;-49
2022/11/09 07:16:29;;;;;;;3.50;1.47;;;;;;;12.36;100.00;100310.59;7391214;19;20430;-50
2022/11/09 07:18:59;;;;;;;6.13;1.47;;;;;;;12.34;100.00;100319.13;7392767;19;20400;-56
2022/11/09 07:21:29;;;;;;;3.93;1.70;;;;;;;12.35;100.00;100315.75;7391051;19;20411;-51
2022/11/09 07:24:01;;;;;;;4.33;1.73;;;;;;;12.29;100.00;100316.41;7393436;19;20409;-51
2022/11/09 07:26:30;;;;;;;4.40;1.70;;;;;;;12.23;100.00;100327.50;7391316;19;20421;-57
2022/11/09 07:28:59;;;;;;;6.07;1.90;;;;;;;12.23;100.00;100321.44;7395211;19;20447;-52
2022/11/09 07:31:30;;;;;;;4.07;1.60;;;;;;;12.26;100.00;100318.94;7391025;19;20410;-51
2022/11/09 07:34:03;;;;;;;9.07;1.60;;;;;;;12.20;100.00;100329.97;7393557;19;20958;-52
2022/11/09 07:36:35;;;;;;;5.77;1.70;;;;;;;12.17;100.00;100329.91;7390835;19;20443;-54
2022/11/09 07:39:07;;;;;;;5.13;1.70;;;;;;;12.18;100.00;100325.59;7391793;19;20422;-52
2022/11/09 07:41:37;;;;;;;2.57;1.73;;;;;;;12.20;100.00;100336.88;7390180;19;20450;-53
2022/11/09 07:44:06;;;;;;;6.60;2.00;;;;;;;12.17;100.00;100324.72;7393450;19;20422;-55
2022/11/09 07:46:36;;;;;;;4.00;1.60;;;;;;;12.22;100.00;100337.78;7390205;19;20506;-53
2022/11/09 07:49:05;;;;;;;4.47;2.03;;;;;;;12.22;100.00;100332.59;7392154;19;20426;-57
2022/11/09 07:51:39;;;;;;;4.83;1.90;;;;;;;12.21;100.00;100339.47;7388698;19;20408;-56
2022/11/09 07:54:12;;;;;;;5.33;2.07;;;;;;;12.21;100.00;100341.22;7393272;19;21231;-53
2022/11/09 07:56:41;;;;;;;6.07;2.57;;;;;;;12.20;100.00;100340.31;7390325;19;20769;-58
2022/11/09 07:59:11;;;;;;;6.43;1.60;;;;;;;12.22;100.00;100333.50;7391479;19;20418;-53
2022/11/09 08:01:40;;;;;;;10.57;1.97;;;;;;;12.22;100.00;100343.84;7390370;19;20422;-53
2022/11/09 08:04:10;;;;;;;4.50;1.50;;;;;;;12.22;100.00;100343.84;7390045;19;20380;-58
2022/11/09 08:06:39;;;;;;;2.80;1.47;;;;;;;12.24;100.00;100343.88;7392204;19;20458;-59
2022/11/09 08:09:11;;;;;;;4.77;1.73;;;;;;;12.26;100.00;100342.22;7391092;19;20426;-54
2022/11/09 08:11:41;;;;;;;8.40;1.50;;;;;;;12.26;100.00;100342.22;7389766;19;20402;-56
2022/11/09 08:14:11;;;;;;;5.33;1.80;;;;;;;12.27;100.00;100339.66;7392822;19;20401;-52
2022/11/09 08:16:40;;;;;;;7.50;1.97;;;;;;;12.25;100.00;100354.25;7389505;19;20457;-48
2022/11/09 08:19:10;;;;;;;4.30;1.60;;;;;;;12.26;100.00;100344.81;7391002;19;20426;-56
2022/11/09 08:21:39;;;;;;;5.53;1.90;;;;;;;12.27;100.00;100344.81;7389706;19;20447;-55
2022/11/09 08:24:12;;;;;;;3.83;1.80;;;;;;;12.27;100.00;100339.66;7391946;19;20394;-56
2022/11/09 08:26:41;;;;;;;7.43;1.63;;;;;;;12.31;100.00;100335.44;7391402;19;20430;-52
2022/11/09 08:29:12;;;;;;;3.90;1.60;;;;;;;12.36;100.00;100327.84;7389822;19;20427;-54
2022/11/09 08:31:41;;;;;;;6.63;1.43;;;;;;;12.39;100.00;100325.31;7388986;19;20847;-54
2022/11/09 08:34:12;;;;;;;5.77;1.77;;;;;;;12.41;100.00;100328.84;7391960;19;20920;-56
2022/11/09 08:36:42;;;;;;;5.50;1.77;;;;;;;12.40;100.00;100334.81;7388926;19;20413;-54
2022/11/09 08:39:14;;;;;;;4.87;1.43;;;;;;;12.36;100.00;100333.00;7390077;19;20417;-53
2022/11/09 08:41:43;;;;;;;6.27;1.43;;;;;;;12.34;100.00;100332.94;7388291;19;20422;-53
2022/11/09 08:44:13;;;;;;;4.43;1.37;;;;;;;12.35;100.00;100328.66;7394007;19;20394;-56
2022/11/09 08:46:42;;;;;;;3.33;1.77;;;;;;;12.40;100.00;100337.41;7385668;19;20515;-50
2022/11/09 08:49:12;;;;;;;6.17;1.70;;;;;;;12.43;100.00;100333.19;7390345;19;20441;-56
2022/11/09 08:51:41;;;;;;;5.87;1.87;;;;;;;12.51;100.00;100324.78;7389116;19;20435;-53
2022/11/09 08:54:14;;;;;;;5.90;1.80;;;;;;;12.53;100.00;100325.69;7395701;19;20414;-56
2022/11/09 08:56:45;;;;;;;6.87;1.80;;;;;;;12.58;100.00;100316.34;7387330;19;20424;-55
2022/11/09 08:59:14;;;;;;;4.80;1.93;;;;;;;12.62;100.00;100306.94;7389336;19;20804;-54
2022/11/09 09:01:44;;;;;;;8.57;1.60;;;;;;;12.66;100.00;100311.34;7387461;19;20419;-55
2022/11/09 09:04:13;;;;;;;6.93;1.73;;;;;;;12.75;100.00;100309.03;7391490;19;20424;-55
2022/11/09 09:06:42;;;;;;;23.23;7.47;;;;;;;12.80;100.00;100296.19;7386693;19;20457;-52
2022/11/09 09:09:15;;;;;;;11.10;2.00;;;;;;;12.87;100.00;100297.22;7389064;19;20434;-50
2022/11/09 09:11:44;;;;;;;9.90;3.77;;;;;;;12.88;100.00;100284.34;7391557;19;20454;-50
2022/11/09 09:14:14;;;;;;;6.13;2.50;;;;;;;12.99;100.00;100270.75;7390285;19;20759;-52
2022/11/09 09:16:44;;;;;;;13.57;2.60;;;;;;;12.99;100.00;100245.75;7387440;19;20444;-54
2022/11/09 09:19:13;;;;;;;7.07;2.03;;;;;;;13.08;100.00;100220.03;7389257;19;21163;-51
2022/11/09 09:21:43;;;;;;;7.33;1.77;;;;;;;13.13;100.00;100198.56;7387669;19;20410;-51
2022/11/09 09:24:15;;;;;;;5.33;2.00;;;;;;;13.22;100.00;100170.25;7389911;19;20395;-51
2022/11/09 09:26:45;;;;;;;5.63;1.73;;;;;;;13.17;100.00;100078.66;7385931;19;20474;-51
2022/11/09 09:29:15;;;;;;;4.97;1.53;;;;;;;13.20;100.00;100034.69;7387546;19;20431;-49
2022/11/09 09:31:45;;;;;;;10.13;1.60;;;;;;;13.34;100.00;100014.22;7386929;19;20776;-52
2022/11/09 09:34:15;;;;;;;4.40;1.33;;;;;;;13.48;100.00;99975.63;7389483;19;20423;-51
2022/11/09 09:36:45;;;;;;;6.80;2.33;;;;;;;13.39;100.00;99955.59;7387111;19;20771;-51
2022/11/09 09:39:19;;;;;;;7.03;1.87;;;;;;;13.36;100.00;99939.97;7387769;19;20430;-52
2022/11/09 09:41:53;;;;;;;5.30;1.40;;;;;;;13.28;100.00;99947.63;7386531;19;20450;-54
2022/11/09 09:44:26;;;;;;;4.70;1.33;;;;;;;13.14;100.00;99941.31;7389282;19;20482;-51
2022/11/09 09:47:01;;;;;;;10.63;2.00;;;;;;;13.08;100.00;99917.06;7385045;19;20806;-52
2022/11/09 09:49:32;;;;;;;5.83;1.70;;;;;;;12.97;100.00;99934.09;7387263;19;21307;-54
2022/11/09 09:52:04;;;;;;;4.83;2.00;;;;;;;12.98;100.00;99943.63;7386511;19;20418;-50
2022/11/09 09:54:42;;;;;;;6.30;1.83;;;;;;;13.01;100.00;99950.56;7388856;19;20414;-50
2022/11/09 09:57:15;;;;;;;4.97;1.10;;;;;;;13.03;100.00;99923.84;7386780;19;20422;-52
2022/11/09 09:59:46;;;;;;;8.67;2.20;;;;;;;13.15;100.00;99909.41;7386450;19;21268;-55
2022/11/09 10:02:26;;;;;;;4.40;1.40;;;;;;;13.23;100.00;99890.56;7392895;19;20781;-50
2022/11/09 10:04:58;;;;;;;19.60;4.90;;;;;;;13.36;100.00;99859.66;7386511;19;20396;-54
2022/11/09 10:07:32;;;;;;;5.03;1.97;;;;;;;13.35;100.00;99847.56;7386794;19;20386;-52
2022/11/09 10:10:26;;;;;;;5.67;1.97;;;;;;;13.48;100.00;99820.16;7388267;19;20438;-51
2022/11/09 10:13:08;;;;;;;8.43;2.40;;;;;;;13.51;100.00;99804.66;7389240;19;20415;-54
2022/11/09 10:15:40;;;;;;;4.43;1.40;;;;;;;13.57;100.00;99803.88;7384354;19;20466;-56
2022/11/09 10:18:25;;;;;;;8.90;2.10;;;;;;;13.62;100.00;99738.31;7384548;19;20416;-57
2022/11/09 10:21:07;;;;;;;6.67;1.57;;;;;;;13.63;100.00;99698.56;7384047;19;20456;-52
2022/11/09 10:23:53;;;;;;;10.53;2.00;;;;;;;13.67;100.00;99677.88;7387542;19;20418;-50
2022/11/09 10:26:29;;;;;;;6.30;1.63;;;;;;;13.69;100.00;99668.41;7384158;19;20982;-51
2022/11/09 10:29:04;;;;;;;5.93;1.30;;;;;;;13.75;100.00;99647.75;7393226;19;20785;-49
2022/11/09 10:31:50;;;;;;;9.17;1.67;;;;;;;13.62;100.00;99600.97;7391507;19;20424;-54
2022/11/09 10:34:21;;;;;;;9.30;1.87;;;;;;;13.73;100.00;99597.59;7394996;19;20410;-55
2022/11/09 10:36:56;;;;;;;9.00;1.90;;;;;;;13.78;100.00;99588.13;7391114;19;20806;-55
2022/11/09 10:39:28;;;;;;;9.77;2.03;;;;;;;13.83;100.00;99537.22;7392746;19;20441;-54
2022/11/09 10:42:00;;;;;;;7.50;1.77;;;;;;;13.77;100.00;99496.56;7390923;19;20409;-56
2022/11/09 10:44:29;;;;;;;9.77;2.03;;;;;;;13.81;100.00;99487.09;7393467;19;20385;-53
2022/11/09 10:47:08;;;;;;;2.00;1.00;;;;;;;13.79;100.00;99449.91;7389856;19;20459;-57
2022/11/09 10:49:38;;;;;;;8.87;2.00;;;;;;;13.94;100.00;99437.91;7392254;19;20432;-57
2022/11/09 10:52:11;;;;;;;9.50;2.23;;;;;;;13.99;100.00;99418.06;7392560;19;20449;-54
2022/11/09 10:54:41;;;;;;;5.30;2.00;;;;;;;13.97;100.00;99402.50;7393382;19;20411;-55
2022/11/09 10:57:18;;;;;;;10.13;3.13;;;;;;;13.81;100.00;99383.41;7382440;19;20448;-53
2022/11/09 10:59:52;;;;;;;3.03;1.50;;;;;;;13.94;100.00;99386.06;7382693;19;20439;-51
2022/11/09 11:02:46;;;;;;;7.00;1.77;;;;;;;13.87;100.00;99367.88;7390529;19;20438;-52
2022/11/09 11:05:37;;;;;;;11.00;3.10;;;;;;;13.81;100.00;99356.59;7390180;19;20442;-56
2022/11/09 11:08:27;;;;;;;10.70;3.20;;;;;;;13.99;100.00;99335.06;7391749;19;20418;-54
2022/11/09 11:11:18;;;;;;;7.27;2.20;;;;;;;13.98;100.00;99335.94;7393755;19;20822;-55
2022/11/09 11:14:15;;;;;;;7.97;2.00;;;;;;;13.75;100.00;99357.44;7393470;19;20416;-49
2022/11/09 11:16:52;;;;;;;19.80;6.23;;;;;;;13.65;100.00;99379.84;7394158;19;21064;-54
2022/11/09 11:19:36;;;;;;;22.93;8.60;;;;;;;13.61;100.00;99410.03;7396845;19;20497;-48
2022/11/09 11:22:26;;;;;;;11.50;2.47;;;;;;;13.71;100.00;99433.44;7392082;19;20993;-53
2022/11/09 11:24:58;;;;;;;11.80;3.13;;;;;;;13.67;100.00;99426.47;7390534;19;20399;-53
2022/11/09 11:27:32;;;;;;;14.43;3.67;;;;;;;13.63;100.00;99394.47;7393049;19;20408;-53
2022/11/09 11:30:10;;;;;;;32.87;5.97;;;;;;;13.72;100.00;99339.25;7390767;19;20422;-54
2022/11/09 11:32:40;;;;;;;24.77;5.47;;;;;;;13.70;100.00;99287.41;7392393;19;20967;-56
2022/11/09 11:35:20;;;;;;;10.73;2.40;;;;;;;13.84;100.00;99284.91;7390826;19;20431;-53
2022/11/09 11:37:55;;;;;;;11.17;3.47;;;;;;;14.00;100.00;99275.47;7393124;19;20961;-53
2022/11/09 11:40:31;;;;;;;10.10;2.17;;;;;;;13.85;100.00;99276.25;7386757;19;20444;-52